createdAt,value
2018-05-07T00:00:09.995Z,70.90
2018-05-07T00:02:36.951Z,71.90
2018-05-07T00:05:03.910Z,72.10
2018-05-07T00:07:30.163Z,72.10
2018-05-07T00:09:56.396Z,72.40
2018-05-07T00:12:23.449Z,72.50
2018-05-07T00:14:49.676Z,72.40
2018-05-07T00:17:15.878Z,72.20
2018-05-07T00:19:42.063Z,71.80
2018-05-07T00:22:08.294Z,71.40
2018-05-07T00:24:34.609Z,71.70
2018-05-07T00:27:00.895Z,71.60
2018-05-07T00:29:27.129Z,71.10
2018-05-07T00:31:53.418Z,71.10
2018-05-07T00:34:19.621Z,71.80
2018-05-07T00:36:45.889Z,71.40
2018-05-07T00:39:12.854Z,72.40
2018-05-07T00:41:39.135Z,72.20
2018-05-07T00:44:05.376Z,73.00
2018-05-07T00:46:31.595Z,73.60
2018-05-07T00:48:57.824Z,74.00
2018-05-07T00:51:24.052Z,73.10
2018-05-07T00:53:50.312Z,74.40
2018-05-07T00:56:17.352Z,74.90
2018-05-07T00:58:44.282Z,74.90
2018-05-07T01:01:10.509Z,74.70
2018-05-07T01:03:36.720Z,74.80
2018-05-07T01:06:03.010Z,75.40
2018-05-07T01:08:30.047Z,77.00
2018-05-07T01:10:57.000Z,76.90
2018-05-07T01:13:23.213Z,76.90
2018-05-07T01:15:50.367Z,77.00
2018-05-07T01:18:17.298Z,76.50
2018-05-07T01:20:43.491Z,76.40
2018-05-07T01:23:09.688Z,76.60
2018-05-07T01:25:35.880Z,76.70
2018-05-07T01:28:02.079Z,77.10
2018-05-07T01:30:29.151Z,77.10
2018-05-07T01:32:55.468Z,76.60
2018-05-07T01:35:21.682Z,77.00
2018-05-07T01:37:47.872Z,76.90
2018-05-07T01:40:14.841Z,76.40
2018-05-07T01:42:41.100Z,76.40
2018-05-07T01:45:07.336Z,76.40
2018-05-07T01:47:33.536Z,76.60
2018-05-07T01:49:59.756Z,77.00
2018-05-07T01:52:25.976Z,76.80
2018-05-07T01:54:52.248Z,77.00
2018-05-07T01:57:18.441Z,77.50
2018-05-07T01:59:44.694Z,77.40
2018-05-07T02:02:10.904Z,77.80
2018-05-07T02:04:37.116Z,77.90
2018-05-07T02:07:04.056Z,78.90
2018-05-07T02:09:31.002Z,79.60
2018-05-07T02:11:57.258Z,79.40
2018-05-07T02:14:23.560Z,79.60
2018-05-07T02:16:50.538Z,80.40
2018-05-07T02:19:16.726Z,80.30
2018-05-07T02:21:43.692Z,81.00
2018-05-07T02:24:09.885Z,81.00
2018-05-07T02:26:36.080Z,81.20
2018-05-07T02:29:02.302Z,81.90
2018-05-07T02:31:28.591Z,81.50
2018-05-07T02:33:55.176Z,81.60
2018-05-07T02:36:21.392Z,81.40
2018-05-07T02:38:47.644Z,80.20
2018-05-07T02:41:13.861Z,80.70
2018-05-07T02:43:40.053Z,81.10
2018-05-07T02:46:07.029Z,82.00
2018-05-07T02:48:33.306Z,82.00
2018-05-07T02:50:59.620Z,82.20
2018-05-07T02:53:25.821Z,82.90
2018-05-07T02:55:52.111Z,82.10
2018-05-07T02:58:19.021Z,82.20
2018-05-07T03:00:45.224Z,82.20
2018-05-07T03:03:11.456Z,81.90
2018-05-07T03:05:37.647Z,82.60
2018-05-07T03:08:04.603Z,82.10
2018-05-07T03:10:30.793Z,82.10
2018-05-07T03:12:57.028Z,82.30
2018-05-07T03:15:23.232Z,82.10
2018-05-07T03:17:49.861Z,82.50
2018-05-07T03:20:16.136Z,82.60
2018-05-07T03:22:43.084Z,83.60
2018-05-07T03:25:10.160Z,83.30
2018-05-07T03:27:36.359Z,83.20
2018-05-07T03:30:02.704Z,83.50
2018-05-07T03:32:28.929Z,84.00
2018-05-07T03:34:55.862Z,84.10
2018-05-07T03:37:22.945Z,84.70
2018-05-07T03:39:49.280Z,84.70
2018-05-07T03:42:15.473Z,84.40
2018-05-07T03:44:42.536Z,84.80
2018-05-07T03:47:08.725Z,84.70
2018-05-07T03:49:35.065Z,83.60
2018-05-07T03:52:01.288Z,83.10
2018-05-07T03:54:27.473Z,84.10
2018-05-07T03:56:53.680Z,84.00
2018-05-07T03:59:19.896Z,84.00
2018-05-07T04:01:46.884Z,85.00
2018-05-07T04:04:13.196Z,84.90
2018-05-07T04:06:39.426Z,84.50
2018-05-07T04:09:05.648Z,85.10
2018-05-07T04:11:31.875Z,85.60
2018-05-07T04:13:58.092Z,86.00
2018-05-07T04:16:37.193Z,86.70
2018-05-07T04:19:15.661Z,86.70
2018-05-07T04:21:54.172Z,86.20
2018-05-07T04:24:20.336Z,85.10
2018-05-07T04:26:46.516Z,85.50
2018-05-07T04:29:13.509Z,85.00
2018-05-07T04:31:39.837Z,85.10
2018-05-07T04:34:06.039Z,86.20
2018-05-07T04:36:32.649Z,85.50
2018-05-07T04:39:00.688Z,85.10
2018-05-07T04:41:27.040Z,85.10
2018-05-07T04:43:53.225Z,83.70
2018-05-07T04:46:19.457Z,84.00
2018-05-07T04:48:45.729Z,84.30
2018-05-07T04:51:11.901Z,83.40
2018-05-07T04:53:38.132Z,84.90
2018-05-07T04:56:05.396Z,84.90
2018-05-07T04:58:31.635Z,85.50
2018-05-07T05:00:57.880Z,85.50
2018-05-07T05:03:24.192Z,85.60
2018-05-07T05:05:54.305Z,84.60
2018-05-07T05:08:20.568Z,84.70
2018-05-07T05:10:47.352Z,83.90
2018-05-07T05:13:14.332Z,84.20
2018-05-07T05:15:40.565Z,84.20
2018-05-07T05:18:06.775Z,83.30
2018-05-07T05:20:33.032Z,82.80
2018-05-07T05:22:59.240Z,83.50
2018-05-07T05:25:25.468Z,81.80
2018-05-07T05:27:51.805Z,82.20
2018-05-07T05:30:18.785Z,82.20
2018-05-07T05:32:45.008Z,82.20
2018-05-07T05:35:11.262Z,81.10
2018-05-07T05:37:38.220Z,80.10
2018-05-07T05:40:04.453Z,80.10
2018-05-07T05:42:30.660Z,79.20
2018-05-07T05:44:57.624Z,78.70
2018-05-07T05:47:23.840Z,78.70
2018-05-07T05:49:50.860Z,78.50
2018-05-07T05:52:17.500Z,78.40
2018-05-07T05:54:43.687Z,75.60
2018-05-07T05:57:09.895Z,74.00
2018-05-07T05:59:37.198Z,73.20
2018-05-07T06:02:03.408Z,68.20
2018-05-07T06:04:29.635Z,67.70
2018-05-07T06:06:57.614Z,67.00
2018-05-07T06:09:23.842Z,67.00
2018-05-07T06:11:50.125Z,66.60
2018-05-07T06:14:17.169Z,66.70
2018-05-07T06:16:44.124Z,65.40
2018-05-07T06:19:11.064Z,64.00
2018-05-07T06:21:38.484Z,64.60
2018-05-07T06:24:04.692Z,64.50
2018-05-07T06:26:30.927Z,64.90
2018-05-07T06:29:02.399Z,64.00
2018-05-07T06:31:28.613Z,63.50
2018-05-07T06:33:54.821Z,63.90
2018-05-07T06:36:23.162Z,62.10
2018-05-07T06:38:50.192Z,63.10
2018-05-07T06:41:17.187Z,62.70
2018-05-07T06:43:43.420Z,62.70
2018-05-07T06:46:09.648Z,61.70
2018-05-07T06:48:36.304Z,60.80
2018-05-07T06:51:02.547Z,62.80
2018-05-07T06:53:29.512Z,65.40
2018-05-07T06:55:56.459Z,62.60
2018-05-07T06:58:22.717Z,62.40
2018-05-07T07:00:48.982Z,63.50
2018-05-07T07:03:15.176Z,62.20
2018-05-07T07:05:41.438Z,62.00
2018-05-07T07:08:07.661Z,64.40
2018-05-07T07:10:33.893Z,62.00
2018-05-07T07:13:00.128Z,61.20
2018-05-07T07:15:26.503Z,59.90
2018-05-07T07:17:59.313Z,60.90
2018-05-07T07:20:26.067Z,60.90
2018-05-07T07:22:52.411Z,60.30
2018-05-07T07:25:18.632Z,60.80
2018-05-07T07:27:44.853Z,60.50
2018-05-07T07:30:11.083Z,58.40
2018-05-07T07:32:37.522Z,58.50
2018-05-07T07:35:03.725Z,57.70
2018-05-07T07:37:30.298Z,59.90
2018-05-07T07:40:01.986Z,59.50
2018-05-07T07:42:28.198Z,58.70
2018-05-07T07:44:54.427Z,57.40
2018-05-07T07:47:20.765Z,58.60
2018-05-07T07:49:47.009Z,56.90
2018-05-07T07:52:13.267Z,55.80
2018-05-07T07:54:39.513Z,57.00
2018-05-07T07:57:05.901Z,56.80
2018-05-07T07:59:36.648Z,55.30
2018-05-07T08:02:03.636Z,53.50
2018-05-07T08:04:34.312Z,53.50
2018-05-07T08:07:00.627Z,55.00
2018-05-07T08:09:26.846Z,53.70
2018-05-07T08:11:53.187Z,55.00
2018-05-07T08:14:19.409Z,54.40
2018-05-07T08:16:45.636Z,54.10
2018-05-07T08:19:11.863Z,52.70
2018-05-07T08:21:38.077Z,53.10
2018-05-07T08:24:04.279Z,53.50
2018-05-07T08:26:30.492Z,51.80
2018-05-07T08:28:57.574Z,52.70
2018-05-07T08:31:23.778Z,52.80
2018-05-07T08:33:50.748Z,48.80
2018-05-07T08:36:17.062Z,48.50
2018-05-07T08:38:43.351Z,48.80
2018-05-07T08:41:09.576Z,49.70
2018-05-07T08:43:35.916Z,51.00
2018-05-07T08:46:02.144Z,50.00
2018-05-07T08:48:28.630Z,50.00
2018-05-07T08:50:54.953Z,46.60
2018-05-07T08:53:21.153Z,50.70
2018-05-07T08:55:48.251Z,46.60
2018-05-07T08:58:14.594Z,46.60
2018-05-07T09:00:40.840Z,49.40
2018-05-07T09:03:07.125Z,46.50
2018-05-07T09:05:33.364Z,47.50
2018-05-07T09:07:59.608Z,46.40
2018-05-07T09:10:25.927Z,44.10
2018-05-07T09:12:52.350Z,47.80
2018-05-07T09:15:19.669Z,47.40
2018-05-07T09:17:45.978Z,47.40
2018-05-07T09:20:13.420Z,46.80
2018-05-07T09:22:39.653Z,47.20
2018-05-07T09:25:05.877Z,45.80
2018-05-07T09:27:32.106Z,46.70
2018-05-07T09:29:58.418Z,47.30
2018-05-07T09:32:24.626Z,45.10
2018-05-07T09:34:51.612Z,48.40
2018-05-07T09:37:18.260Z,48.40
2018-05-07T09:39:44.499Z,45.50
2018-05-07T09:42:10.725Z,44.60
2018-05-07T09:44:36.977Z,43.40
2018-05-07T09:47:03.952Z,43.90
2018-05-07T09:49:30.194Z,43.90
2018-05-07T09:51:56.417Z,47.30
2018-05-07T09:54:22.744Z,44.60
2018-05-07T09:56:55.001Z,44.50
2018-05-07T09:59:21.240Z,45.10
2018-05-07T10:01:47.485Z,46.50
2018-05-07T10:04:13.707Z,45.40
2018-05-07T10:06:40.311Z,45.60
2018-05-07T10:09:07.288Z,45.20
2018-05-07T10:11:33.523Z,44.30
2018-05-07T10:13:59.758Z,45.90
2018-05-07T10:16:25.961Z,43.90
2018-05-07T10:18:52.997Z,44.60
2018-05-07T10:21:20.008Z,46.40
2018-05-07T10:23:46.240Z,46.40
2018-05-07T10:26:12.465Z,43.90
2018-05-07T10:28:38.738Z,46.90
2018-05-07T10:31:05.711Z,42.20
2018-05-07T10:33:32.135Z,42.20
2018-05-07T10:35:58.461Z,44.30
2018-05-07T10:38:25.410Z,43.90
2018-05-07T10:40:51.615Z,43.90
2018-05-07T10:43:18.062Z,41.80
2018-05-07T10:45:44.383Z,41.90
2018-05-07T10:48:11.328Z,43.00
2018-05-07T10:50:38.287Z,42.00
2018-05-07T10:53:04.627Z,42.10
2018-05-07T10:55:30.922Z,42.40
2018-05-07T10:57:57.146Z,42.90
2018-05-07T11:00:23.374Z,41.90
2018-05-07T11:02:49.744Z,42.80
2018-05-07T11:05:15.954Z,44.70
2018-05-07T11:07:42.319Z,41.20
2018-05-07T11:10:08.507Z,43.00
2018-05-07T11:12:35.281Z,42.90
2018-05-07T11:15:01.584Z,43.20
2018-05-07T11:17:28.512Z,43.10
2018-05-07T11:19:54.844Z,43.00
2018-05-07T11:22:21.072Z,41.20
2018-05-07T11:24:47.399Z,42.40
2018-05-07T11:27:13.730Z,39.90
2018-05-07T11:29:39.932Z,41.60
2018-05-07T11:32:06.164Z,42.70
2018-05-07T11:34:32.808Z,41.80
2018-05-07T11:36:59.010Z,41.30
2018-05-07T11:39:25.210Z,41.10
2018-05-07T11:41:52.140Z,41.40
2018-05-07T11:44:18.440Z,41.20
2018-05-07T11:46:44.621Z,38.80
2018-05-07T11:49:11.540Z,42.90
2018-05-07T11:51:37.942Z,42.70
2018-05-07T11:54:04.116Z,42.00
2018-05-07T11:56:31.083Z,42.20
2018-05-07T11:58:57.335Z,42.10
2018-05-07T12:01:23.685Z,41.40
2018-05-07T12:03:49.915Z,40.70
2018-05-07T12:06:16.083Z,42.00
2018-05-07T12:08:43.078Z,39.80
2018-05-07T12:11:09.260Z,39.60
2018-05-07T12:13:36.404Z,39.30
2018-05-07T12:16:03.356Z,39.00
2018-05-07T12:18:30.645Z,38.70
2018-05-07T12:20:56.912Z,37.30
2018-05-07T12:23:23.203Z,37.30
2018-05-07T12:25:49.448Z,39.30
2018-05-07T12:28:15.664Z,39.60
2018-05-07T12:30:41.890Z,40.10
2018-05-07T12:33:08.136Z,35.20
2018-05-07T12:35:34.411Z,38.00
2018-05-07T12:38:01.392Z,39.70
2018-05-07T12:40:27.604Z,39.70
2018-05-07T12:42:53.801Z,38.30
2018-05-07T12:45:20.748Z,37.70
2018-05-07T12:47:46.920Z,37.60
2018-05-07T12:50:13.150Z,37.20
2018-05-07T12:52:39.457Z,37.60
2018-05-07T12:55:05.616Z,37.10
2018-05-07T12:57:31.847Z,35.90
2018-05-07T12:59:58.016Z,37.00
2018-05-07T13:02:27.945Z,39.30
2018-05-07T13:04:54.260Z,39.30
2018-05-07T13:07:20.712Z,37.70
2018-05-07T13:09:47.703Z,37.50
2018-05-07T13:12:13.880Z,37.50
2018-05-07T13:14:40.169Z,35.40
2018-05-07T13:17:06.709Z,37.40
2018-05-07T13:19:33.580Z,37.50
2018-05-07T13:21:59.765Z,37.50
2018-05-07T13:24:25.970Z,37.40
2018-05-07T13:26:53.021Z,39.00
2018-05-07T13:29:20.066Z,39.30
2018-05-07T13:31:47.039Z,38.90
2018-05-07T13:34:13.440Z,38.50
2018-05-07T13:36:40.384Z,36.90
2018-05-07T13:39:07.303Z,35.50
2018-05-07T13:41:33.920Z,34.80
2018-05-07T13:44:00.100Z,36.20
2018-05-07T13:46:27.081Z,36.90
2018-05-07T13:48:53.440Z,36.90
2018-05-07T13:51:19.695Z,36.80
2018-05-07T13:53:45.895Z,36.80
2018-05-07T13:56:12.126Z,39.50
2018-05-07T13:58:38.346Z,37.60
2018-05-07T14:01:04.566Z,37.20
2018-05-07T14:03:31.197Z,37.10
2018-05-07T14:05:57.400Z,36.30
2018-05-07T14:08:24.553Z,34.40
2018-05-07T14:10:51.553Z,35.10
2018-05-07T14:13:18.480Z,35.10
2018-05-07T14:15:44.826Z,35.10
2018-05-07T14:18:11.265Z,35.10
2018-05-07T14:20:39.063Z,37.60
2018-05-07T14:23:05.320Z,37.40
2018-05-07T14:25:31.527Z,36.20
2018-05-07T14:27:58.491Z,36.80
2018-05-07T14:30:45.282Z,36.50
2018-05-07T14:33:11.584Z,35.40
2018-05-07T14:35:38.323Z,36.60
2018-05-07T14:38:04.536Z,34.70
2018-05-07T14:40:30.732Z,37.00
2018-05-07T14:42:57.698Z,35.30
2018-05-07T14:45:23.905Z,35.70
2018-05-07T14:47:50.876Z,37.40
2018-05-07T14:50:17.131Z,37.40
2018-05-07T14:52:43.330Z,37.40
2018-05-07T14:55:09.581Z,35.60
2018-05-07T14:57:36.448Z,35.40
2018-05-07T15:00:02.805Z,35.40
2018-05-07T15:02:29.909Z,35.10
2018-05-07T15:04:56.883Z,38.00
2018-05-07T15:07:23.067Z,38.20
2018-05-07T15:09:49.666Z,36.50
2018-05-07T15:12:16.605Z,39.20
2018-05-07T15:14:43.596Z,36.90
2018-05-07T15:17:09.804Z,36.60
2018-05-07T15:19:36.069Z,36.60
2018-05-07T15:22:02.269Z,35.40
2018-05-07T15:24:40.635Z,37.20
2018-05-07T15:27:06.808Z,36.30
2018-05-07T15:29:33.368Z,35.90
2018-05-07T15:31:59.585Z,37.40
2018-05-07T15:34:25.772Z,38.70
2018-05-07T15:36:53.514Z,39.60
2018-05-07T15:39:19.761Z,38.80
2018-05-07T15:41:53.244Z,37.50
2018-05-07T15:44:19.463Z,36.70
2018-05-07T15:46:45.688Z,38.80
2018-05-07T15:49:11.899Z,38.70
2018-05-07T15:51:38.224Z,37.40
2018-05-07T15:54:04.432Z,35.40
2018-05-07T15:56:31.366Z,34.40
2018-05-07T15:58:58.293Z,35.40
2018-05-07T16:01:24.684Z,35.20
2018-05-07T16:03:50.893Z,36.00
2018-05-07T16:06:17.236Z,35.50
2018-05-07T16:08:43.434Z,35.00
2018-05-07T16:11:09.620Z,36.40
2018-05-07T16:13:35.812Z,36.20
2018-05-07T16:16:02.188Z,36.40
2018-05-07T16:18:28.403Z,36.90
2018-05-07T16:20:54.679Z,38.40
2018-05-07T16:23:21.144Z,38.30
2018-05-07T16:25:47.179Z,38.40
2018-05-07T16:28:13.393Z,39.90
2018-05-07T16:30:39.855Z,40.30
2018-05-07T16:33:06.088Z,40.50
2018-05-07T16:35:37.015Z,39.00
2018-05-07T16:38:03.284Z,39.50
2018-05-07T16:40:30.400Z,38.60
2018-05-07T16:42:56.636Z,38.40
2018-05-07T16:45:22.836Z,38.50
2018-05-07T16:47:49.075Z,39.50
2018-05-07T16:50:15.445Z,40.40
2018-05-07T16:52:41.665Z,39.40
2018-05-07T16:55:07.878Z,38.00
2018-05-07T16:57:34.185Z,39.40
2018-05-07T17:00:00.465Z,37.50
2018-05-07T17:02:27.005Z,40.20
2018-05-07T17:04:53.241Z,37.10
2018-05-07T17:07:19.628Z,36.90
2018-05-07T17:09:46.498Z,38.50
2018-05-07T17:12:12.734Z,38.30
2018-05-07T17:14:38.945Z,38.30
2018-05-07T17:17:05.267Z,37.30
2018-05-07T17:19:31.962Z,39.70
2018-05-07T17:21:58.911Z,37.00
2018-05-07T17:24:25.834Z,37.70
2018-05-07T17:26:52.045Z,37.70
2018-05-07T17:29:18.243Z,39.40
2018-05-07T17:31:44.503Z,40.30
2018-05-07T17:34:10.724Z,39.40
2018-05-07T17:36:37.366Z,40.30
2018-05-07T17:39:03.677Z,39.60
2018-05-07T17:41:29.955Z,40.00
2018-05-07T17:43:56.981Z,41.10
2018-05-07T17:46:35.482Z,41.10
2018-05-07T17:49:01.765Z,42.70
2018-05-07T17:51:28.719Z,43.70
2018-05-07T17:53:54.935Z,43.70
2018-05-07T17:56:21.908Z,44.00
2018-05-07T17:58:50.400Z,44.00
2018-05-07T18:01:16.786Z,44.30
2018-05-07T18:03:43.882Z,42.90
2018-05-07T18:06:10.134Z,43.10
2018-05-07T18:08:36.362Z,44.90
2018-05-07T18:11:02.602Z,43.40
2018-05-07T18:13:28.810Z,44.70
2018-05-07T18:15:55.020Z,42.90
2018-05-07T18:18:21.256Z,44.60
2018-05-07T18:20:47.528Z,44.90
2018-05-07T18:23:13.760Z,44.30
2018-05-07T18:25:40.225Z,43.80
2018-05-07T18:28:06.449Z,45.50
2018-05-07T18:30:33.408Z,44.90
2018-05-07T18:33:00.427Z,44.90
2018-05-07T18:35:27.381Z,44.90
2018-05-07T18:37:54.388Z,45.00
2018-05-07T18:40:20.601Z,45.00
2018-05-07T18:42:46.821Z,45.50
2018-05-07T18:45:13.168Z,45.50
2018-05-07T18:47:39.512Z,46.20
2018-05-07T18:50:05.706Z,46.50
2018-05-07T18:52:31.977Z,46.20
2018-05-07T18:54:58.329Z,49.20
2018-05-07T18:57:25.332Z,46.70
2018-05-07T18:59:51.558Z,46.70
2018-05-07T19:02:17.791Z,50.30
2018-05-07T19:04:44.033Z,48.50
2018-05-07T19:07:10.367Z,46.70
2018-05-07T19:09:37.418Z,50.10
2018-05-07T19:12:03.763Z,50.10
2018-05-07T19:14:29.991Z,46.90
2018-05-07T19:16:56.305Z,49.20
2018-05-07T19:19:22.509Z,47.90
2018-05-07T19:21:48.835Z,50.60
2018-05-07T19:24:15.117Z,51.60
2018-05-07T19:26:42.471Z,48.60
2018-05-07T19:29:08.788Z,50.40
2018-05-07T19:31:36.514Z,49.00
2018-05-07T19:34:02.880Z,49.40
2018-05-07T19:36:29.141Z,50.10
2018-05-07T19:38:56.145Z,55.90
2018-05-07T19:41:22.508Z,56.20
2018-05-07T19:43:48.772Z,55.70
2018-05-07T19:46:15.061Z,53.90
2018-05-07T19:48:41.308Z,55.40
2018-05-07T19:51:08.411Z,54.40
2018-05-07T19:53:35.190Z,54.20
2018-05-07T19:56:01.525Z,50.80
2018-05-07T19:58:28.644Z,52.30
2018-05-07T20:00:54.872Z,54.40
2018-05-07T20:03:21.931Z,52.60
2018-05-07T20:05:49.406Z,52.70
2018-05-07T20:08:15.620Z,51.70
2018-05-07T20:10:42.001Z,51.60
2018-05-07T20:13:08.433Z,53.70
2018-05-07T20:15:34.735Z,53.50
2018-05-07T20:18:01.040Z,53.60
2018-05-07T20:20:27.339Z,53.30
2018-05-07T20:22:53.575Z,53.00
2018-05-07T20:25:19.860Z,54.60
2018-05-07T20:27:46.871Z,53.60
2018-05-07T20:30:13.092Z,53.20
2018-05-07T20:32:39.341Z,54.00
2018-05-07T20:35:05.564Z,52.90
2018-05-07T20:37:33.605Z,53.10
2018-05-07T20:39:59.846Z,53.00
2018-05-07T20:42:26.232Z,56.30
2018-05-07T20:44:53.187Z,55.30
2018-05-07T20:47:20.237Z,55.00
2018-05-07T20:49:47.215Z,56.00
2018-05-07T20:52:14.076Z,55.80
2018-05-07T20:54:41.427Z,56.70
2018-05-07T20:57:08.173Z,56.60
2018-05-07T20:59:34.709Z,57.20
2018-05-07T21:02:01.391Z,57.00
2018-05-07T21:04:28.068Z,57.10
2018-05-07T21:06:55.005Z,57.50
2018-05-07T21:09:21.342Z,57.80
2018-05-07T21:11:48.415Z,57.90
2018-05-07T21:14:15.365Z,58.60
2018-05-07T21:16:43.001Z,59.90
2018-05-07T21:19:09.932Z,59.80
2018-05-07T21:21:36.598Z,60.20
2018-05-07T21:24:03.320Z,60.60
2018-05-07T21:26:30.009Z,61.20
2018-05-07T21:28:58.293Z,61.10
2018-05-07T21:31:25.225Z,61.10
2018-05-07T21:33:51.515Z,61.10
2018-05-07T21:36:18.218Z,61.40
2018-05-07T21:38:45.064Z,61.50
2018-05-07T21:41:12.592Z,63.70
2018-05-07T21:43:39.524Z,63.60
2018-05-07T21:46:05.900Z,65.10
2018-05-07T21:48:32.864Z,63.70
2018-05-07T21:51:00.660Z,64.60
2018-05-07T21:53:26.912Z,64.60
2018-05-07T21:55:54.795Z,65.30
2018-05-07T21:58:21.331Z,65.30
2018-05-07T22:00:48.344Z,66.00
2018-05-07T22:03:14.990Z,66.00
2018-05-07T22:05:41.691Z,66.50
2018-05-07T22:08:08.784Z,67.30
2018-05-07T22:10:35.564Z,68.00
2018-05-07T22:13:02.541Z,68.00
2018-05-07T22:15:28.905Z,67.90
2018-05-07T22:17:55.521Z,69.50
2018-05-07T22:20:22.177Z,69.00
2018-05-07T22:22:48.434Z,69.40
2018-05-07T22:25:14.630Z,69.90
2018-05-07T22:27:40.872Z,70.30
2018-05-07T22:30:07.089Z,70.20
2018-05-07T22:32:33.304Z,69.70
2018-05-07T22:34:59.616Z,70.20
2018-05-07T22:37:25.801Z,70.00
2018-05-07T22:39:52.271Z,70.30
2018-05-07T22:42:19.208Z,69.80
2018-05-07T22:44:46.147Z,70.20
2018-05-07T22:47:13.360Z,71.00
2018-05-07T22:49:39.876Z,70.80
2018-05-07T22:52:06.576Z,70.30
2018-05-07T22:54:32.929Z,70.90
2018-05-07T22:56:59.162Z,71.60
2018-05-07T22:59:25.372Z,72.40
2018-05-07T23:01:52.490Z,73.00
2018-05-07T23:04:18.708Z,73.00
2018-05-07T23:06:44.891Z,73.00
2018-05-07T23:09:11.956Z,73.60
2018-05-07T23:11:38.160Z,73.60
2018-05-07T23:14:05.096Z,73.70
2018-05-07T23:16:32.088Z,74.00
2018-05-07T23:18:58.438Z,74.00
2018-05-07T23:21:24.636Z,73.70
2018-05-07T23:23:50.870Z,73.60
2018-05-07T23:26:17.101Z,73.60
2018-05-07T23:28:43.316Z,73.70
2018-05-07T23:31:09.609Z,74.30
2018-05-07T23:33:35.789Z,74.30
2018-05-07T23:36:02.005Z,74.50
2018-05-07T23:38:28.220Z,74.50
2018-05-07T23:40:55.255Z,74.20
2018-05-07T23:43:22.211Z,74.20
2018-05-07T23:45:49.236Z,75.30
2018-05-07T23:48:15.430Z,75.30
2018-05-07T23:50:41.616Z,73.70
2018-05-07T23:53:08.609Z,71.90
2018-05-07T23:55:35.200Z,71.90
2018-05-07T23:58:02.168Z,71.10
